Terminal Aerodrome Forecast
Issued by NWS Twin Cities, MN

Home | Current Version | Previous Version | Graphics & Text | Print | Product List | Glossary On
Versions: 1 2 3 4 5 6 7 8 9 10 11 12 13 14 15 16 17 18 19 20 21 22 23 24 25 26 27 28 29 30 31 32
016
FTUS43 KMPX 210254 AAC
TAFMSP
TAF AMD
KMSP 210254Z 2103/2206 18009KT P6SM SCT025
      TEMPO 2103/2107 BKN025
     FM211700 20007KT P6SM SCT250
     FM212300 23007KT P6SM BKN250=

USA.gov is the U.S. government's official web portal to all federal, state and local government web resources and services.